createdAt,value
2022-08-29T00:00:23.648Z,11.68
2022-08-29T00:02:55.359Z,6.78
2022-08-29T00:05:26.304Z,10.90
2022-08-29T00:08:00.989Z,10.38
2022-08-29T00:10:34.080Z,12.00
2022-08-29T00:13:05.151Z,12.05
2022-08-29T00:15:44.795Z,13.20
2022-08-29T00:18:14.240Z,12.32
2022-08-29T00:20:45.871Z,12.07
2022-08-29T00:23:14.067Z,10.63
2022-08-29T00:25:45.354Z,10.70
2022-08-29T00:28:13.594Z,7.25
2022-08-29T00:30:42.490Z,9.27
2022-08-29T00:33:10.877Z,9.20
2022-08-29T00:35:43.718Z,6.93
2022-08-29T00:38:15.813Z,7.35
2022-08-29T00:40:52.315Z,6.97
2022-08-29T00:43:24.536Z,7.80
2022-08-29T00:46:01.994Z,8.32
2022-08-29T00:48:31.446Z,7.40
2022-08-29T00:51:04.358Z,6.45
2022-08-29T00:53:37.826Z,7.13
2022-08-29T00:56:09.568Z,6.80
2022-08-29T00:58:42.845Z,6.22
2022-08-29T01:01:10.991Z,7.63
2022-08-29T01:03:42.975Z,7.50
2022-08-29T01:06:13.485Z,9.90
2022-08-29T01:08:42.214Z,6.10
2022-08-29T01:11:32.724Z,7.32
2022-08-29T01:14:02.234Z,10.45
2022-08-29T01:16:31.500Z,6.78
2022-08-29T01:19:02.616Z,8.68
2022-08-29T01:21:37.510Z,7.28
2022-08-29T01:24:14.921Z,6.30
2022-08-29T01:26:46.024Z,7.45
2022-08-29T01:29:14.637Z,7.90
2022-08-29T01:31:57.340Z,9.68
2022-08-29T01:34:27.396Z,10.75
2022-08-29T01:36:58.159Z,7.78
2022-08-29T01:39:29.760Z,7.82
2022-08-29T01:42:01.156Z,10.30
2022-08-29T01:44:30.048Z,13.57
2022-08-29T01:47:03.396Z,9.60
2022-08-29T01:49:32.928Z,12.05
2022-08-29T01:52:02.068Z,10.73
2022-08-29T01:54:31.355Z,10.70
2022-08-29T01:57:01.487Z,9.95
2022-08-29T01:59:31.371Z,11.50
2022-08-29T02:02:03.729Z,10.02
2022-08-29T02:04:31.867Z,12.88
2022-08-29T02:07:00.705Z,9.90
2022-08-29T02:09:30.257Z,15.10
2022-08-29T02:12:03.059Z,10.07
2022-08-29T02:14:31.691Z,9.73
2022-08-29T02:17:04.726Z,9.68
2022-08-29T02:19:33.076Z,11.50
2022-08-29T02:22:02.597Z,8.27
2022-08-29T02:24:31.141Z,9.20
2022-08-29T02:27:00.931Z,12.15
2022-08-29T02:29:37.449Z,11.60
2022-08-29T02:32:07.160Z,12.68
2022-08-29T02:34:37.871Z,15.20
2022-08-29T02:37:07.515Z,14.27
2022-08-29T02:39:35.587Z,10.07
2022-08-29T02:42:06.332Z,11.18
2022-08-29T02:44:34.312Z,13.90
2022-08-29T02:47:02.428Z,11.00
2022-08-29T02:49:30.434Z,10.88
2022-08-29T02:52:02.439Z,11.13
2022-08-29T02:54:31.262Z,10.15
2022-08-29T02:56:59.296Z,11.73
2022-08-29T02:59:31.073Z,14.30
2022-08-29T03:01:59.173Z,12.82
2022-08-29T03:04:27.499Z,12.30
2022-08-29T03:06:56.840Z,11.40
2022-08-29T03:09:25.022Z,13.27
2022-08-29T03:11:56.100Z,12.48
2022-08-29T03:14:24.429Z,8.63
2022-08-29T03:16:53.967Z,12.07
2022-08-29T03:19:22.862Z,11.52
2022-08-29T03:21:51.207Z,12.80
2022-08-29T03:24:26.470Z,11.13
2022-08-29T03:26:57.100Z,12.73
2022-08-29T03:29:27.042Z,12.77
2022-08-29T03:31:58.222Z,12.60
2022-08-29T03:34:26.588Z,15.65
2022-08-29T03:36:54.664Z,16.02
2022-08-29T03:39:22.727Z,18.48
2022-08-29T03:41:52.066Z,19.38
2022-08-29T03:44:20.224Z,20.42
2022-08-29T03:46:48.334Z,20.92
2022-08-29T03:49:17.861Z,16.17
2022-08-29T03:51:45.900Z,19.45
2022-08-29T03:54:17.051Z,18.33
2022-08-29T03:56:46.103Z,15.40
2022-08-29T03:59:14.891Z,18.73
2022-08-29T04:01:43.223Z,18.13
2022-08-29T04:04:31.333Z,17.70
2022-08-29T04:07:01.802Z,17.85
2022-08-29T04:09:30.324Z,18.65
2022-08-29T04:11:58.341Z,20.23
2022-08-29T04:14:26.636Z,18.00
2022-08-29T04:16:54.845Z,21.27
2022-08-29T04:19:23.458Z,19.13
2022-08-29T04:21:51.700Z,18.23
2022-08-29T04:24:21.098Z,23.00
2022-08-29T04:26:49.109Z,21.95
2022-08-29T04:29:17.367Z,19.20
2022-08-29T04:31:45.488Z,21.60
2022-08-29T04:34:14.214Z,18.70
2022-08-29T04:36:45.281Z,18.33
2022-08-29T04:39:14.127Z,22.45
2022-08-29T04:41:44.079Z,22.60
2022-08-29T04:44:13.399Z,17.13
2022-08-29T04:46:41.595Z,15.10
2022-08-29T04:49:10.171Z,18.55
2022-08-29T04:51:38.219Z,17.08
2022-08-29T04:54:07.206Z,16.50
2022-08-29T04:56:37.466Z,17.35
2022-08-29T04:59:06.827Z,14.70
2022-08-29T05:01:35.409Z,16.48
2022-08-29T05:04:06.121Z,17.45
2022-08-29T05:06:34.220Z,18.30
2022-08-29T05:09:02.253Z,18.13
2022-08-29T05:11:32.816Z,18.15
2022-08-29T05:14:02.420Z,14.82
2022-08-29T05:16:36.989Z,15.38
2022-08-29T05:19:08.362Z,13.45
2022-08-29T05:21:39.352Z,15.40
2022-08-29T05:24:09.007Z,15.20
2022-08-29T05:26:39.056Z,18.90
2022-08-29T05:29:09.026Z,11.75
2022-08-29T05:31:38.833Z,15.68
2022-08-29T05:34:27.871Z,13.82
2022-08-29T05:36:54.863Z,13.32
2022-08-29T05:39:22.886Z,10.68
2022-08-29T05:41:51.173Z,14.25
2022-08-29T05:44:20.479Z,13.15
2022-08-29T05:46:49.806Z,10.40
2022-08-29T05:49:17.838Z,14.30
2022-08-29T05:51:45.889Z,13.80
2022-08-29T05:54:13.905Z,9.90
2022-08-29T05:56:42.903Z,11.10
2022-08-29T05:59:12.605Z,10.30
2022-08-29T06:01:41.471Z,13.45
2022-08-29T06:04:11.097Z,11.77
2022-08-29T06:06:41.641Z,12.57
2022-08-29T06:09:10.348Z,11.50
2022-08-29T06:11:38.621Z,10.00
2022-08-29T06:14:07.640Z,10.02
2022-08-29T06:16:35.682Z,12.43
2022-08-29T06:19:03.687Z,9.73
2022-08-29T06:21:33.327Z,13.82
2022-08-29T06:24:01.403Z,12.32
2022-08-29T06:26:31.431Z,10.50
2022-08-29T06:29:00.106Z,9.63
2022-08-29T06:31:29.625Z,10.63
2022-08-29T06:33:59.994Z,6.47
2022-08-29T06:36:29.469Z,8.48
2022-08-29T06:39:00.196Z,9.00
2022-08-29T06:41:28.797Z,8.77
2022-08-29T06:44:01.009Z,9.55
2022-08-29T06:46:31.246Z,8.98
2022-08-29T06:49:00.974Z,7.60
2022-08-29T06:51:32.955Z,7.30
2022-08-29T06:54:02.925Z,10.32
2022-08-29T06:56:31.347Z,8.57
2022-08-29T06:58:59.830Z,8.63
2022-08-29T07:01:28.396Z,7.13
2022-08-29T07:03:57.929Z,8.95
2022-08-29T07:06:27.952Z,6.07
2022-08-29T07:08:56.876Z,7.53
2022-08-29T07:11:27.871Z,8.13
2022-08-29T07:13:58.059Z,7.30
2022-08-29T07:16:27.613Z,6.63
2022-08-29T07:18:56.158Z,5.82
2022-08-29T07:21:26.403Z,6.28
2022-08-29T07:23:56.094Z,14.13
2022-08-29T07:26:28.652Z,6.57
2022-08-29T07:28:59.082Z,5.88
2022-08-29T07:31:30.839Z,6.60
2022-08-29T07:34:02.628Z,7.95
2022-08-29T07:36:34.303Z,6.85
2022-08-29T07:39:04.331Z,4.57
2022-08-29T07:41:33.837Z,5.90
2022-08-29T07:44:01.871Z,6.15
2022-08-29T07:46:31.476Z,3.67
2022-08-29T07:49:00.673Z,6.55
2022-08-29T07:51:29.539Z,4.80
2022-08-29T07:53:58.346Z,4.80
2022-08-29T07:56:29.365Z,5.78
2022-08-29T07:59:00.433Z,4.82
2022-08-29T08:01:28.802Z,7.05
2022-08-29T08:03:57.291Z,4.32
2022-08-29T08:06:27.554Z,5.60
2022-08-29T08:08:56.852Z,4.53
2022-08-29T08:11:26.791Z,3.00
2022-08-29T08:13:56.283Z,4.35
2022-08-29T08:16:28.141Z,8.85
2022-08-29T08:18:57.033Z,4.65
2022-08-29T08:21:26.124Z,5.32
2022-08-29T08:23:54.767Z,4.38
2022-08-29T08:26:23.531Z,4.25
2022-08-29T08:28:51.938Z,5.85
2022-08-29T08:31:21.203Z,3.83
2022-08-29T08:33:51.901Z,5.07
2022-08-29T08:36:22.683Z,7.07
2022-08-29T08:38:52.537Z,5.53
2022-08-29T08:41:32.047Z,4.20
2022-08-29T08:44:04.593Z,5.13
2022-08-29T08:46:37.608Z,4.30
2022-08-29T08:49:10.315Z,7.93
2022-08-29T08:51:43.457Z,4.03
2022-08-29T08:54:20.168Z,9.07
2022-08-29T08:56:52.044Z,3.05
2022-08-29T08:59:23.995Z,7.22
2022-08-29T09:02:06.474Z,4.00
2022-08-29T09:04:50.171Z,4.93
2022-08-29T09:07:39.419Z,5.25
2022-08-29T09:10:21.910Z,4.30
2022-08-29T09:12:58.503Z,4.97
2022-08-29T09:15:34.907Z,7.68
2022-08-29T09:18:07.886Z,6.47
2022-08-29T09:20:39.610Z,4.55
2022-08-29T09:23:15.816Z,4.15
2022-08-29T09:25:43.999Z,5.18
2022-08-29T09:28:12.327Z,4.50
2022-08-29T09:30:43.983Z,8.75
2022-08-29T09:33:17.292Z,6.20
2022-08-29T09:35:53.486Z,5.57
2022-08-29T09:38:25.153Z,4.63
2022-08-29T09:40:56.391Z,5.32
2022-08-29T09:43:27.961Z,6.05
2022-08-29T09:46:27.033Z,5.45
2022-08-29T09:49:13.744Z,7.47
2022-08-29T09:51:44.582Z,6.45
2022-08-29T09:54:19.781Z,5.90
2022-08-29T09:56:51.763Z,7.22
2022-08-29T09:59:26.525Z,6.68
2022-08-29T10:02:14.099Z,7.57
2022-08-29T10:04:46.554Z,7.82
2022-08-29T10:07:20.456Z,10.00
2022-08-29T10:09:57.562Z,9.18
2022-08-29T10:12:32.141Z,7.65
2022-08-29T10:15:03.942Z,7.60
2022-08-29T10:17:57.061Z,7.50
2022-08-29T10:20:29.404Z,7.53
2022-08-29T10:23:09.753Z,10.85
2022-08-29T10:25:40.366Z,6.65
2022-08-29T10:28:16.199Z,6.28
2022-08-29T10:30:54.049Z,7.65
2022-08-29T10:33:34.247Z,5.85
2022-08-29T10:36:09.868Z,4.38
2022-08-29T10:38:48.390Z,8.07
2022-08-29T10:41:29.466Z,5.65
2022-08-29T10:44:11.918Z,4.53
2022-08-29T10:46:57.394Z,5.28
2022-08-29T10:49:40.710Z,7.93
2022-08-29T10:52:19.148Z,7.95
2022-08-29T10:54:55.316Z,7.43
2022-08-29T10:57:42.119Z,7.22
2022-08-29T11:00:14.149Z,6.53
2022-08-29T11:02:53.437Z,5.93
2022-08-29T11:05:27.639Z,6.38
2022-08-29T11:08:02.354Z,5.05
2022-08-29T11:10:40.306Z,6.78
2022-08-29T11:13:15.538Z,4.85
2022-08-29T11:15:48.571Z,6.60
2022-08-29T11:18:25.579Z,8.25
2022-08-29T11:21:01.747Z,4.35
2022-08-29T11:23:37.317Z,5.03
2022-08-29T11:26:13.482Z,5.97
2022-08-29T11:28:51.351Z,7.35
2022-08-29T11:31:28.302Z,5.63
2022-08-29T11:34:04.473Z,6.47
2022-08-29T11:36:52.667Z,5.95
2022-08-29T11:39:50.802Z,5.10
2022-08-29T11:45:23.766Z,6.93
2022-08-29T11:48:01.839Z,6.40
2022-08-29T11:50:33.819Z,9.65
2022-08-29T11:53:10.537Z,4.22
2022-08-29T11:55:41.008Z,7.25
2022-08-29T11:58:46.153Z,9.35
2022-08-29T12:01:52.917Z,8.65
2022-08-29T12:04:53.749Z,7.45
2022-08-29T12:07:33.077Z,7.28
2022-08-29T12:10:05.034Z,8.38
2022-08-29T12:12:45.848Z,7.32
2022-08-29T12:15:56.424Z,6.13
2022-08-29T12:18:46.436Z,7.70
2022-08-29T12:21:48.702Z,5.50
2022-08-29T12:24:41.339Z,6.28
2022-08-29T12:27:46.931Z,10.02
2022-08-29T12:30:15.222Z,9.23
2022-08-29T12:32:59.378Z,9.23
2022-08-29T12:35:59.329Z,6.97
2022-08-29T12:38:40.023Z,7.03
2022-08-29T12:41:34.523Z,10.00
2022-08-29T12:44:06.999Z,5.95
2022-08-29T12:46:40.253Z,8.85
2022-08-29T12:49:19.508Z,7.32
2022-08-29T12:51:51.902Z,7.40
2022-08-29T12:54:33.956Z,7.32
2022-08-29T12:57:04.059Z,6.22
2022-08-29T12:59:32.571Z,4.90
2022-08-29T13:02:00.919Z,8.88
2022-08-29T13:04:33.735Z,6.28
2022-08-29T13:07:04.058Z,6.80
2022-08-29T13:09:38.974Z,8.00
2022-08-29T13:12:17.608Z,6.45
2022-08-29T13:14:58.897Z,3.88
2022-08-29T13:17:29.567Z,6.95
2022-08-29T13:20:36.667Z,4.22
2022-08-29T13:23:09.341Z,6.07
2022-08-29T13:25:45.865Z,5.88
2022-08-29T13:28:16.285Z,6.38
2022-08-29T13:30:48.786Z,9.13
2022-08-29T13:33:34.927Z,9.70
2022-08-29T13:36:30.180Z,8.07
2022-08-29T13:39:15.114Z,4.90
2022-08-29T13:41:45.157Z,7.47
2022-08-29T13:44:17.917Z,6.65
2022-08-29T13:46:47.454Z,7.07
2022-08-29T13:49:20.764Z,5.70
2022-08-29T13:51:48.961Z,5.85
2022-08-29T13:54:17.315Z,7.03
2022-08-29T13:56:50.796Z,3.80
2022-08-29T13:59:24.175Z,9.30
2022-08-29T14:02:09.385Z,6.75
2022-08-29T14:04:40.636Z,6.60
2022-08-29T14:07:12.539Z,6.25
2022-08-29T14:09:42.700Z,5.57
2022-08-29T14:12:12.510Z,6.18
2022-08-29T14:14:40.899Z,7.70
2022-08-29T14:17:09.218Z,4.75
2022-08-29T14:19:38.899Z,7.20
2022-08-29T14:22:07.494Z,3.83
2022-08-29T14:24:35.639Z,5.38
2022-08-29T14:27:05.415Z,6.20
2022-08-29T14:29:37.591Z,6.05
2022-08-29T14:32:07.678Z,3.63
2022-08-29T14:34:37.518Z,9.82
2022-08-29T14:37:09.420Z,5.03
2022-08-29T14:39:37.679Z,4.22
2022-08-29T14:42:06.578Z,6.47
2022-08-29T14:44:36.034Z,4.30
2022-08-29T14:47:04.612Z,4.78
2022-08-29T14:49:33.051Z,5.15
2022-08-29T14:52:01.054Z,6.05
2022-08-29T14:54:29.131Z,4.93
2022-08-29T14:56:57.456Z,4.07
2022-08-29T14:59:28.063Z,5.05
2022-08-29T15:01:57.486Z,5.78
2022-08-29T15:04:35.466Z,4.90
2022-08-29T15:07:05.330Z,5.55
2022-08-29T15:09:33.541Z,8.25
2022-08-29T15:12:01.713Z,4.80
2022-08-29T15:14:31.455Z,6.25
2022-08-29T15:17:00.917Z,9.45
2022-08-29T15:20:31.723Z,6.00
2022-08-29T15:22:18.349Z,6.07
2022-08-29T15:24:47.598Z,7.78
2022-08-29T15:27:17.837Z,7.63
2022-08-29T15:29:47.366Z,6.13
2022-08-29T15:32:19.332Z,5.93
2022-08-29T15:34:48.175Z,7.75
2022-08-29T15:37:17.359Z,4.10
2022-08-29T15:39:46.586Z,6.65
2022-08-29T15:42:17.284Z,2.63
2022-08-29T15:44:46.733Z,3.58
2022-08-29T15:47:25.663Z,6.60
2022-08-29T15:49:58.956Z,4.97
2022-08-29T15:52:27.105Z,4.90
2022-08-29T15:54:55.596Z,5.10
2022-08-29T15:57:26.739Z,3.13
2022-08-29T15:59:59.115Z,6.35
2022-08-29T16:02:29.064Z,4.68
2022-08-29T16:04:57.751Z,5.40
2022-08-29T16:07:29.305Z,5.13
2022-08-29T16:10:00.039Z,3.08
2022-08-29T16:12:30.936Z,5.40
2022-08-29T16:15:01.080Z,4.82
2022-08-29T16:17:32.194Z,3.03
2022-08-29T16:20:03.205Z,1.85
2022-08-29T16:22:33.881Z,4.38
2022-08-29T16:25:01.975Z,4.25
2022-08-29T16:27:31.504Z,3.63
2022-08-29T16:30:01.331Z,3.78
2022-08-29T16:32:33.782Z,7.50
2022-08-29T16:35:04.812Z,3.05
2022-08-29T16:37:33.418Z,4.88
2022-08-29T16:40:03.955Z,4.05
2022-08-29T16:42:33.883Z,4.20
2022-08-29T16:45:02.719Z,6.25
2022-08-29T16:47:32.387Z,4.15
2022-08-29T16:50:01.485Z,3.15
2022-08-29T16:52:32.436Z,6.03
2022-08-29T16:55:00.882Z,3.72
2022-08-29T16:57:29.171Z,6.18
2022-08-29T16:59:57.215Z,4.43
2022-08-29T17:02:26.064Z,4.35
2022-08-29T17:04:55.519Z,5.90
2022-08-29T17:07:32.336Z,4.05
2022-08-29T17:10:01.487Z,5.38
2022-08-29T17:12:29.931Z,2.75
2022-08-29T17:14:57.022Z,6.35
2022-08-29T17:17:25.151Z,5.07
2022-08-29T17:19:58.401Z,4.57
2022-08-29T17:22:31.776Z,2.20
2022-08-29T17:25:00.476Z,5.18
2022-08-29T17:27:30.205Z,2.35
2022-08-29T17:29:59.921Z,6.95
2022-08-29T17:32:29.617Z,4.10
2022-08-29T17:34:59.320Z,3.75
2022-08-29T17:37:27.846Z,5.45
2022-08-29T17:40:05.631Z,3.72
2022-08-29T17:42:33.781Z,3.10
2022-08-29T17:45:01.979Z,3.40
2022-08-29T17:47:29.983Z,2.67
2022-08-29T17:49:59.938Z,3.00
2022-08-29T17:52:27.977Z,6.88
2022-08-29T17:54:59.644Z,4.03
2022-08-29T17:57:30.248Z,3.70
2022-08-29T17:59:58.235Z,3.72
2022-08-29T18:02:26.309Z,7.28
2022-08-29T18:04:54.794Z,4.03
2022-08-29T18:07:27.038Z,4.40
2022-08-29T18:09:59.431Z,4.03
2022-08-29T18:12:27.430Z,7.55
2022-08-29T18:14:55.608Z,5.70
2022-08-29T18:17:23.612Z,7.70
2022-08-29T18:19:51.908Z,5.57
2022-08-29T18:22:20.071Z,6.00
2022-08-29T18:24:49.448Z,7.30
2022-08-29T18:27:22.075Z,8.25
2022-08-29T18:29:52.380Z,8.50
2022-08-29T18:32:22.059Z,3.58
2022-08-29T18:34:51.251Z,7.47
2022-08-29T18:37:19.672Z,5.53
2022-08-29T18:39:49.534Z,6.05
2022-08-29T18:42:38.863Z,6.80
2022-08-29T18:45:07.431Z,6.55
2022-08-29T18:47:35.442Z,5.82
2022-08-29T18:50:25.259Z,5.10
2022-08-29T18:52:54.449Z,9.02
2022-08-29T18:55:25.269Z,4.53
2022-08-29T18:57:54.492Z,7.60
2022-08-29T19:00:22.871Z,5.07
2022-08-29T19:02:50.955Z,6.72
2022-08-29T19:05:20.391Z,4.88
2022-08-29T19:07:49.890Z,3.13
2022-08-29T19:10:22.012Z,5.07
2022-08-29T19:12:57.364Z,6.22
2022-08-29T19:15:28.390Z,5.22
2022-08-29T19:17:56.821Z,4.57
2022-08-29T19:20:44.714Z,4.72
2022-08-29T19:23:13.685Z,4.00
2022-08-29T19:25:45.602Z,6.63
2022-08-29T19:28:18.207Z,4.88
2022-08-29T19:30:52.112Z,6.55
2022-08-29T19:33:21.178Z,4.65
2022-08-29T19:35:51.348Z,5.72
2022-08-29T19:38:21.183Z,5.22
2022-08-29T19:40:56.315Z,6.03
2022-08-29T19:43:31.599Z,4.63
2022-08-29T19:46:03.204Z,7.80
2022-08-29T19:48:33.126Z,5.60
2022-08-29T19:51:02.876Z,5.10
2022-08-29T19:53:31.196Z,7.30
2022-08-29T19:56:00.937Z,4.65
2022-08-29T19:58:32.452Z,5.85
2022-08-29T20:01:02.819Z,5.57
2022-08-29T20:03:33.102Z,9.40
2022-08-29T20:06:08.088Z,5.72
2022-08-29T20:08:41.364Z,7.80
2022-08-29T20:11:12.664Z,4.20
2022-08-29T20:13:47.585Z,5.45
2022-08-29T20:16:20.511Z,4.55
2022-08-29T20:18:51.874Z,4.43
2022-08-29T20:21:20.588Z,6.15
2022-08-29T20:23:51.427Z,5.53
2022-08-29T20:26:23.266Z,9.50
2022-08-29T20:28:59.762Z,6.95
2022-08-29T20:31:29.549Z,5.82
2022-08-29T20:33:58.280Z,8.30
2022-08-29T20:36:47.356Z,7.15
2022-08-29T20:39:17.966Z,10.35
2022-08-29T20:41:50.261Z,4.15
2022-08-29T20:44:20.895Z,6.13
2022-08-29T20:46:50.251Z,4.45
2022-08-29T20:49:21.730Z,4.25
2022-08-29T20:51:51.176Z,5.10
2022-08-29T20:54:22.371Z,5.05
2022-08-29T20:56:53.627Z,5.40
2022-08-29T20:59:26.642Z,4.15
2022-08-29T21:01:56.492Z,6.30
2022-08-29T21:04:43.649Z,4.40
2022-08-29T21:07:14.345Z,6.20
2022-08-29T21:09:44.250Z,5.45
2022-08-29T21:12:14.920Z,7.13
2022-08-29T21:14:44.744Z,5.63
2022-08-29T21:17:15.028Z,2.97
2022-08-29T21:19:43.932Z,5.75
2022-08-29T21:22:15.123Z,5.35
2022-08-29T21:24:43.840Z,7.28
2022-08-29T21:27:14.422Z,5.25
2022-08-29T21:29:44.959Z,7.05
2022-08-29T21:32:15.111Z,6.00
2022-08-29T21:34:44.338Z,8.13
2022-08-29T21:37:15.413Z,9.00
2022-08-29T21:39:47.971Z,7.45
2022-08-29T21:42:19.207Z,4.50
2022-08-29T21:44:49.106Z,7.22
2022-08-29T21:47:18.010Z,4.47
2022-08-29T21:49:51.545Z,6.82
2022-08-29T21:52:21.570Z,5.28
2022-08-29T21:54:53.983Z,7.40
2022-08-29T21:57:40.489Z,6.57
2022-08-29T22:00:11.584Z,6.68
2022-08-29T22:02:42.196Z,5.35
2022-08-29T22:05:10.937Z,4.90
2022-08-29T22:07:40.714Z,5.95
2022-08-29T22:10:13.100Z,6.43
2022-08-29T22:12:41.101Z,7.15
2022-08-29T22:15:30.115Z,6.57
2022-08-29T22:17:58.175Z,6.68
2022-08-29T22:20:26.463Z,5.07
2022-08-29T22:22:54.559Z,6.55
2022-08-29T22:25:23.579Z,4.43
2022-08-29T22:27:51.702Z,8.73
2022-08-29T22:30:21.486Z,6.22
2022-08-29T22:33:01.325Z,4.15
2022-08-29T22:35:32.166Z,5.03
2022-08-29T22:38:00.402Z,5.28
2022-08-29T22:40:28.828Z,5.97
2022-08-29T22:42:57.804Z,8.90
2022-08-29T22:45:27.222Z,4.57
2022-08-29T22:47:55.666Z,4.93
2022-08-29T22:50:26.685Z,6.38
2022-08-29T22:52:57.334Z,6.72
2022-08-29T22:57:52.479Z,4.13
2022-08-29T23:00:22.992Z,4.85
2022-08-29T23:02:54.263Z,3.35
2022-08-29T23:05:24.090Z,6.15
2022-08-29T23:07:52.366Z,3.55
2022-08-29T23:10:22.190Z,3.45
2022-08-29T23:12:51.212Z,7.47
2022-08-29T23:15:20.288Z,4.25
2022-08-29T23:17:52.079Z,4.00
2022-08-29T23:20:20.499Z,6.13
2022-08-29T23:22:48.745Z,7.45
2022-08-29T23:25:16.888Z,5.03
2022-08-29T23:27:45.722Z,2.22
2022-08-29T23:30:15.896Z,5.97
2022-08-29T23:32:45.476Z,5.63
2022-08-29T23:35:15.772Z,9.88
2022-08-29T23:37:43.786Z,4.63
2022-08-29T23:40:14.465Z,4.22
2022-08-29T23:42:42.539Z,3.03
2022-08-29T23:45:12.720Z,5.75
2022-08-29T23:47:41.470Z,6.13
2022-08-29T23:50:12.576Z,4.45
2022-08-29T23:52:43.355Z,4.30
2022-08-29T23:55:12.558Z,7.38
2022-08-29T23:57:43.583Z,6.13
